sensor_id;sensor_type;location;lat;lon;timestamp;temperature;humidity
37300;DHT22;23184;51.902;12.836;2023-02-11T07:02:33;3.60;99.90
37300;DHT22;23184;51.902;12.836;2023-02-11T07:04:58;3.60;99.90
37300;DHT22;23184;51.902;12.836;2023-02-11T07:07:24;3.60;99.90
37300;DHT22;23184;51.902;12.836;2023-02-11T07:09:49;3.60;99.90
37300;DHT22;23184;51.902;12.836;2023-02-11T07:12:15;3.70;99.90
37300;DHT22;23184;51.902;12.836;2023-02-11T07:14:40;3.80;99.90
37300;DHT22;23184;51.902;12.836;2023-02-11T07:17:06;3.80;99.90
37300;DHT22;23184;51.902;12.836;2023-02-11T07:19:31;3.80;99.90
37300;DHT22;23184;51.902;12.836;2023-02-11T07:21:57;3.80;99.90
37300;DHT22;23184;51.902;12.836;2023-02-11T07:24:22;3.80;99.90
37300;DHT22;23184;51.902;12.836;2023-02-11T07:26:49;3.80;99.90
37300;DHT22;23184;51.902;12.836;2023-02-11T07:29:14;3.80;99.90
37300;DHT22;23184;51.902;12.836;2023-02-11T07:31:40;3.80;99.90
37300;DHT22;23184;51.902;12.836;2023-02-11T07:34:05;3.80;99.90
37300;DHT22;23184;51.902;12.836;2023-02-11T07:36:31;3.80;99.90
37300;DHT22;23184;51.902;12.836;2023-02-11T07:38:57;3.90;99.90
37300;DHT22;23184;51.902;12.836;2023-02-11T07:41:23;3.80;99.90
37300;DHT22;23184;51.902;12.836;2023-02-11T07:43:49;3.90;99.90
37300;DHT22;23184;51.902;12.836;2023-02-11T07:46:23;3.90;99.90
37300;DHT22;23184;51.902;12.836;2023-02-11T07:48:49;3.90;99.90
37300;DHT22;23184;51.902;12.836;2023-02-11T07:51:21;3.90;99.90
37300;DHT22;23184;51.902;12.836;2023-02-11T07:53:46;3.90;99.90
37300;DHT22;23184;51.902;12.836;2023-02-11T07:56:13;4.00;99.90
37300;DHT22;23184;51.902;12.836;2023-02-11T07:58:40;3.90;99.90
37300;DHT22;23184;51.902;12.836;2023-02-11T08:01:10;4.00;99.90
37300;DHT22;23184;51.902;12.836;2023-02-11T08:03:37;4.00;99.90
37300;DHT22;23184;51.902;12.836;2023-02-11T08:06:09;4.00;99.90
37300;DHT22;23184;51.902;12.836;2023-02-11T08:08:35;4.00;99.90
37300;DHT22;23184;51.902;12.836;2023-02-11T08:11:06;4.00;99.90
37300;DHT22;23184;51.902;12.836;2023-02-11T08:13:32;4.10;99.90
37300;DHT22;23184;51.902;12.836;2023-02-11T08:15:57;4.10;99.90
37300;DHT22;23184;51.902;12.836;2023-02-11T08:18:23;4.20;99.90
37300;DHT22;23184;51.902;12.836;2023-02-11T08:20:49;4.30;99.90
37300;DHT22;23184;51.902;12.836;2023-02-11T08:23:15;4.30;99.90
37300;DHT22;23184;51.902;12.836;2023-02-11T08:25:40;4.30;99.90
37300;DHT22;23184;51.902;12.836;2023-02-11T08:28:06;4.40;99.90
37300;DHT22;23184;51.902;12.836;2023-02-11T08:30:33;4.40;99.90
37300;DHT22;23184;51.902;12.836;2023-02-11T08:32:59;4.40;99.90
37300;DHT22;23184;51.902;12.836;2023-02-11T08:35:24;4.40;99.90
37300;DHT22;23184;51.902;12.836;2023-02-11T08:37:50;4.40;99.90
37300;DHT22;23184;51.902;12.836;2023-02-11T08:40:16;4.40;99.90
37300;DHT22;23184;51.902;12.836;2023-02-11T08:42:41;4.40;99.90
37300;DHT22;23184;51.902;12.836;2023-02-11T08:45:07;4.50;99.90
37300;DHT22;23184;51.902;12.836;2023-02-11T08:47:35;4.50;99.90
37300;DHT22;23184;51.902;12.836;2023-02-11T08:50:00;4.60;99.90
37300;DHT22;23184;51.902;12.836;2023-02-11T08:52:26;4.60;99.90
37300;DHT22;23184;51.902;12.836;2023-02-11T08:54:51;4.60;99.90
37300;DHT22;23184;51.902;12.836;2023-02-11T08:57:17;4.60;99.90
37300;DHT22;23184;51.902;12.836;2023-02-11T08:59:42;4.70;99.90
37300;DHT22;23184;51.902;12.836;2023-02-11T09:02:12;4.80;99.90
37300;DHT22;23184;51.902;12.836;2023-02-11T09:04:37;4.90;99.90
37300;DHT22;23184;51.902;12.836;2023-02-11T09:07:03;4.90;99.90
37300;DHT22;23184;51.902;12.836;2023-02-11T09:09:29;4.90;99.90
37300;DHT22;23184;51.902;12.836;2023-02-11T09:11:54;4.90;99.90
37300;DHT22;23184;51.902;12.836;2023-02-11T09:14:22;5.00;99.90
37300;DHT22;23184;51.902;12.836;2023-02-11T09:16:49;4.80;99.90
37300;DHT22;23184;51.902;12.836;2023-02-11T09:19:14;4.90;99.90
37300;DHT22;23184;51.902;12.836;2023-02-11T09:21:40;4.90;99.90
37300;DHT22;23184;51.902;12.836;2023-02-11T09:24:06;4.90;99.90
37300;DHT22;23184;51.902;12.836;2023-02-11T09:26:33;4.90;99.90
37300;DHT22;23184;51.902;12.836;2023-02-11T09:28:59;5.00;99.90
37300;DHT22;23184;51.902;12.836;2023-02-11T09:31:27;5.10;99.90
37300;DHT22;23184;51.902;12.836;2023-02-11T09:33:55;5.20;99.90
37300;DHT22;23184;51.902;12.836;2023-02-11T09:36:35;5.30;99.90
37300;DHT22;23184;51.902;12.836;2023-02-11T09:39:06;5.30;99.90
37300;DHT22;23184;51.902;12.836;2023-02-11T09:42:09;5.30;99.90
37300;DHT22;23184;51.902;12.836;2023-02-11T09:44:38;5.40;99.90
37300;DHT22;23184;51.902;12.836;2023-02-11T09:47:11;5.40;99.90
37300;DHT22;23184;51.902;12.836;2023-02-11T09:50:04;5.50;99.90
37300;DHT22;23184;51.902;12.836;2023-02-11T09:55:22;5.60;99.90
37300;DHT22;23184;51.902;12.836;2023-02-11T09:57:49;5.60;99.90
37300;DHT22;23184;51.902;12.836;2023-02-11T10:00:18;5.60;99.90
37300;DHT22;23184;51.902;12.836;2023-02-11T10:03:08;5.70;99.90
37300;DHT22;23184;51.902;12.836;2023-02-11T10:05:48;5.70;99.90
37300;DHT22;23184;51.902;12.836;2023-02-11T10:08:41;5.70;99.90
37300;DHT22;23184;51.902;12.836;2023-02-11T10:11:40;5.70;99.90
37300;DHT22;23184;51.902;12.836;2023-02-11T10:14:22;5.70;99.90
37300;DHT22;23184;51.902;12.836;2023-02-11T10:22:44;5.70;99.90
37300;DHT22;23184;51.902;12.836;2023-02-11T10:25:23;5.60;99.90
37300;DHT22;23184;51.902;12.836;2023-02-11T10:27:50;5.70;99.90
37300;DHT22;23184;51.902;12.836;2023-02-11T10:30:36;5.70;99.90
37300;DHT22;23184;51.902;12.836;2023-02-11T10:33:23;5.70;99.90
37300;DHT22;23184;51.902;12.836;2023-02-11T10:35:49;5.70;99.90
37300;DHT22;23184;51.902;12.836;2023-02-11T10:38:15;5.70;99.90
37300;DHT22;23184;51.902;12.836;2023-02-11T10:40:40;5.70;99.90
37300;DHT22;23184;51.902;12.836;2023-02-11T10:43:13;5.70;99.90
37300;DHT22;23184;51.902;12.836;2023-02-11T10:45:43;5.70;99.90
37300;DHT22;23184;51.902;12.836;2023-02-11T10:51:13;5.80;99.90
37300;DHT22;23184;51.902;12.836;2023-02-11T10:53:39;5.80;99.90
37300;DHT22;23184;51.902;12.836;2023-02-11T10:56:06;5.80;99.90
37300;DHT22;23184;51.902;12.836;2023-02-11T11:01:49;5.90;99.90
37300;DHT22;23184;51.902;12.836;2023-02-11T11:04:34;5.90;99.90
37300;DHT22;23184;51.902;12.836;2023-02-11T11:07:22;5.90;99.90
37300;DHT22;23184;51.902;12.836;2023-02-11T11:10:01;5.90;99.90
37300;DHT22;23184;51.902;12.836;2023-02-11T11:12:46;5.90;99.90
37300;DHT22;23184;51.902;12.836;2023-02-11T11:17:43;5.80;99.90
37300;DHT22;23184;51.902;12.836;2023-02-11T11:22:44;5.80;99.90
37300;DHT22;23184;51.902;12.836;2023-02-11T11:25:21;5.80;99.90
37300;DHT22;23184;51.902;12.836;2023-02-11T11:27:52;5.80;99.90
37300;DHT22;23184;51.902;12.836;2023-02-11T11:30:19;5.80;99.90
37300;DHT22;23184;51.902;12.836;2023-02-11T11:32:45;5.80;99.90
37300;DHT22;23184;51.902;12.836;2023-02-11T11:35:26;5.90;99.90
37300;DHT22;23184;51.902;12.836;2023-02-11T11:37:56;6.00;99.90
37300;DHT22;23184;51.902;12.836;2023-02-11T11:40:25;5.90;99.90
37300;DHT22;23184;51.902;12.836;2023-02-11T11:43:17;6.00;99.90
37300;DHT22;23184;51.902;12.836;2023-02-11T11:45:55;6.00;99.90
37300;DHT22;23184;51.902;12.836;2023-02-11T11:50:56;6.00;99.90
37300;DHT22;23184;51.902;12.836;2023-02-11T11:56:34;6.10;99.90
37300;DHT22;23184;51.902;12.836;2023-02-11T11:59:09;6.20;99.90
37300;DHT22;23184;51.902;12.836;2023-02-11T12:01:49;6.20;99.90
37300;DHT22;23184;51.902;12.836;2023-02-11T12:13:20;6.30;99.90
37300;DHT22;23184;51.902;12.836;2023-02-11T12:16:27;6.40;99.90
37300;DHT22;23184;51.902;12.836;2023-02-11T12:22:20;6.60;99.90
37300;DHT22;23184;51.902;12.836;2023-02-11T12:25:16;6.70;99.90
37300;DHT22;23184;51.902;12.836;2023-02-11T12:28:17;6.80;99.90
37300;DHT22;23184;51.902;12.836;2023-02-11T12:33:39;6.90;99.90
37300;DHT22;23184;51.902;12.836;2023-02-11T12:36:20;6.90;99.90
37300;DHT22;23184;51.902;12.836;2023-02-11T12:39:23;6.90;99.90
37300;DHT22;23184;51.902;12.836;2023-02-11T12:42:32;7.00;99.90
37300;DHT22;23184;51.902;12.836;2023-02-11T12:45:38;7.00;99.90
37300;DHT22;23184;51.902;12.836;2023-02-11T12:48:10;7.00;99.90
37300;DHT22;23184;51.902;12.836;2023-02-11T12:50:47;7.00;99.90
37300;DHT22;23184;51.902;12.836;2023-02-11T12:53:27;7.00;99.90
37300;DHT22;23184;51.902;12.836;2023-02-11T12:56:05;7.00;99.90
37300;DHT22;23184;51.902;12.836;2023-02-11T12:58:34;7.00;99.90
37300;DHT22;23184;51.902;12.836;2023-02-11T13:01:05;7.00;99.90
37300;DHT22;23184;51.902;12.836;2023-02-11T13:03:59;7.00;99.90
37300;DHT22;23184;51.902;12.836;2023-02-11T13:06:41;7.00;99.90
37300;DHT22;23184;51.902;12.836;2023-02-11T13:09:15;7.00;99.90
37300;DHT22;23184;51.902;12.836;2023-02-11T13:11:47;6.90;99.90
37300;DHT22;23184;51.902;12.836;2023-02-11T13:14:36;6.90;99.90
37300;DHT22;23184;51.902;12.836;2023-02-11T13:17:12;7.00;99.90
37300;DHT22;23184;51.902;12.836;2023-02-11T13:19:47;7.00;99.90
37300;DHT22;23184;51.902;12.836;2023-02-11T13:22:23;6.90;99.90
37300;DHT22;23184;51.902;12.836;2023-02-11T13:25:06;7.00;99.90
37300;DHT22;23184;51.902;12.836;2023-02-11T13:28:18;7.00;99.90
37300;DHT22;23184;51.902;12.836;2023-02-11T13:30:46;7.00;99.90
37300;DHT22;23184;51.902;12.836;2023-02-11T13:33:19;7.00;99.90
37300;DHT22;23184;51.902;12.836;2023-02-11T13:35:48;7.10;99.90
37300;DHT22;23184;51.902;12.836;2023-02-11T13:38:33;7.00;99.90
37300;DHT22;23184;51.902;12.836;2023-02-11T13:41:25;7.10;99.90
37300;DHT22;23184;51.902;12.836;2023-02-11T13:49:28;7.10;99.90
37300;DHT22;23184;51.902;12.836;2023-02-11T13:51:55;7.10;99.90
37300;DHT22;23184;51.902;12.836;2023-02-11T13:54:33;7.10;99.90
37300;DHT22;23184;51.902;12.836;2023-02-11T13:59:48;7.10;99.90
37300;DHT22;23184;51.902;12.836;2023-02-11T14:10:49;7.10;99.90
37300;DHT22;23184;51.902;12.836;2023-02-11T14:13:29;7.10;99.90
37300;DHT22;23184;51.902;12.836;2023-02-11T14:16:25;7.20;99.90
37300;DHT22;23184;51.902;12.836;2023-02-11T14:23:48;7.20;99.90
37300;DHT22;23184;51.902;12.836;2023-02-11T14:31:53;7.30;99.90
37300;DHT22;23184;51.902;12.836;2023-02-11T14:34:30;7.30;99.90
37300;DHT22;23184;51.902;12.836;2023-02-11T14:42:27;7.30;99.90
37300;DHT22;23184;51.902;12.836;2023-02-11T14:44:56;7.30;99.90
37300;DHT22;23184;51.902;12.836;2023-02-11T14:47:28;7.30;99.90
37300;DHT22;23184;51.902;12.836;2023-02-11T14:49:55;7.40;99.90
37300;DHT22;23184;51.902;12.836;2023-02-11T14:52:29;7.30;99.90
37300;DHT22;23184;51.902;12.836;2023-02-11T14:55:11;7.40;99.90
37300;DHT22;23184;51.902;12.836;2023-02-11T14:57:38;7.40;99.90
37300;DHT22;23184;51.902;12.836;2023-02-11T15:00:19;7.40;99.90
37300;DHT22;23184;51.902;12.836;2023-02-11T15:02:46;7.40;99.90
37300;DHT22;23184;51.902;12.836;2023-02-11T15:07:48;7.40;99.90
37300;DHT22;23184;51.902;12.836;2023-02-11T15:10:24;7.40;99.90
37300;DHT22;23184;51.902;12.836;2023-02-11T15:12:50;7.40;99.90
37300;DHT22;23184;51.902;12.836;2023-02-11T15:15:16;7.40;99.90
37300;DHT22;23184;51.902;12.836;2023-02-11T15:17:42;7.40;99.90
37300;DHT22;23184;51.902;12.836;2023-02-11T15:20:18;7.40;99.90
37300;DHT22;23184;51.902;12.836;2023-02-11T15:22:45;7.30;99.90
37300;DHT22;23184;51.902;12.836;2023-02-11T15:25:14;7.30;99.90
37300;DHT22;23184;51.902;12.836;2023-02-11T15:27:43;7.30;99.90
37300;DHT22;23184;51.902;12.836;2023-02-11T15:32:51;7.30;99.90
37300;DHT22;23184;51.902;12.836;2023-02-11T15:35:23;7.30;99.90
37300;DHT22;23184;51.902;12.836;2023-02-11T15:37:49;7.30;99.90
37300;DHT22;23184;51.902;12.836;2023-02-11T15:40:27;7.40;99.90
37300;DHT22;23184;51.902;12.836;2023-02-11T15:47:52;7.30;99.90
37300;DHT22;23184;51.902;12.836;2023-02-11T15:50:24;7.30;99.90
37300;DHT22;23184;51.902;12.836;2023-02-11T15:52:51;7.30;99.90
37300;DHT22;23184;51.902;12.836;2023-02-11T15:55:18;7.30;99.90
37300;DHT22;23184;51.902;12.836;2023-02-11T15:57:48;7.30;99.90
37300;DHT22;23184;51.902;12.836;2023-02-11T16:00:20;7.30;99.90
37300;DHT22;23184;51.902;12.836;2023-02-11T16:02:47;7.30;99.90
37300;DHT22;23184;51.902;12.836;2023-02-11T16:05:36;7.30;99.90
37300;DHT22;23184;51.902;12.836;2023-02-11T16:08:21;7.30;99.90
37300;DHT22;23184;51.902;12.836;2023-02-11T16:11:03;7.30;99.90
37300;DHT22;23184;51.902;12.836;2023-02-11T16:13:43;7.30;99.90
37300;DHT22;23184;51.902;12.836;2023-02-11T16:16:18;7.30;99.90
37300;DHT22;23184;51.902;12.836;2023-02-11T16:18:51;7.30;99.90
37300;DHT22;23184;51.902;12.836;2023-02-11T16:21:18;7.30;99.90
37300;DHT22;23184;51.902;12.836;2023-02-11T16:23:52;7.30;99.90
37300;DHT22;23184;51.902;12.836;2023-02-11T16:26:29;7.30;99.90
37300;DHT22;23184;51.902;12.836;2023-02-11T16:29:14;7.30;99.90
37300;DHT22;23184;51.902;12.836;2023-02-11T16:31:42;7.30;99.90
37300;DHT22;23184;51.902;12.836;2023-02-11T16:34:14;7.40;99.90
37300;DHT22;23184;51.902;12.836;2023-02-11T16:36:40;7.30;99.90
37300;DHT22;23184;51.902;12.836;2023-02-11T16:39:06;7.30;99.90
37300;DHT22;23184;51.902;12.836;2023-02-11T16:41:32;7.30;99.90
37300;DHT22;23184;51.902;12.836;2023-02-11T16:43:57;7.30;99.90
37300;DHT22;23184;51.902;12.836;2023-02-11T16:46:23;7.30;99.90
37300;DHT22;23184;51.902;12.836;2023-02-11T16:48:49;7.30;99.90
37300;DHT22;23184;51.902;12.836;2023-02-11T16:51:14;7.30;99.90
37300;DHT22;23184;51.902;12.836;2023-02-11T16:53:40;7.30;99.90
37300;DHT22;23184;51.902;12.836;2023-02-11T16:56:08;7.30;99.90
37300;DHT22;23184;51.902;12.836;2023-02-11T16:58:34;7.30;99.90
37300;DHT22;23184;51.902;12.836;2023-02-11T17:01:00;7.30;99.90
37300;DHT22;23184;51.902;12.836;2023-02-11T17:03:26;7.30;99.90
37300;DHT22;23184;51.902;12.836;2023-02-11T17:05:52;7.30;99.90
37300;DHT22;23184;51.902;12.836;2023-02-11T17:08:18;7.30;99.90
37300;DHT22;23184;51.902;12.836;2023-02-11T17:10:44;7.30;99.90
37300;DHT22;23184;51.902;12.836;2023-02-11T17:13:09;7.30;99.90
37300;DHT22;23184;51.902;12.836;2023-02-11T17:15:35;7.30;99.90
37300;DHT22;23184;51.902;12.836;2023-02-11T17:18:00;7.30;99.90
37300;DHT22;23184;51.902;12.836;2023-02-11T17:20:26;7.30;99.90
37300;DHT22;23184;51.902;12.836;2023-02-11T17:22:52;7.30;99.90
37300;DHT22;23184;51.902;12.836;2023-02-11T17:25:17;7.30;99.90
37300;DHT22;23184;51.902;12.836;2023-02-11T17:27:43;7.30;99.90
37300;DHT22;23184;51.902;12.836;2023-02-11T17:30:10;7.30;99.90
37300;DHT22;23184;51.902;12.836;2023-02-11T17:32:36;7.30;99.90
37300;DHT22;23184;51.902;12.836;2023-02-11T17:35:01;7.30;99.90
37300;DHT22;23184;51.902;12.836;2023-02-11T17:37:27;7.30;99.90
37300;DHT22;23184;51.902;12.836;2023-02-11T17:39:53;7.30;99.90
37300;DHT22;23184;51.902;12.836;2023-02-11T17:42:18;7.30;99.90
37300;DHT22;23184;51.902;12.836;2023-02-11T17:44:44;7.30;99.90
37300;DHT22;23184;51.902;12.836;2023-02-11T17:47:11;7.30;99.90
37300;DHT22;23184;51.902;12.836;2023-02-11T17:49:36;7.20;99.90
37300;DHT22;23184;51.902;12.836;2023-02-11T17:52:02;7.30;99.90
37300;DHT22;23184;51.902;12.836;2023-02-11T17:54:28;7.20;99.90
37300;DHT22;23184;51.902;12.836;2023-02-11T17:56:53;7.20;99.90
37300;DHT22;23184;51.902;12.836;2023-02-11T17:59:19;7.30;99.90
37300;DHT22;23184;51.902;12.836;2023-02-11T18:01:45;7.30;99.90
37300;DHT22;23184;51.902;12.836;2023-02-11T18:04:13;7.30;99.90
37300;DHT22;23184;51.902;12.836;2023-02-11T18:06:39;7.30;99.90
37300;DHT22;23184;51.902;12.836;2023-02-11T18:09:05;7.30;99.90
37300;DHT22;23184;51.902;12.836;2023-02-11T18:11:32;7.30;99.90
37300;DHT22;23184;51.902;12.836;2023-02-11T18:13:59;7.30;99.90
37300;DHT22;23184;51.902;12.836;2023-02-11T18:16:25;7.20;99.90
37300;DHT22;23184;51.902;12.836;2023-02-11T18:18:53;7.20;99.90
37300;DHT22;23184;51.902;12.836;2023-02-11T18:21:20;7.20;99.90
37300;DHT22;23184;51.902;12.836;2023-02-11T18:23:46;7.20;99.90
37300;DHT22;23184;51.902;12.836;2023-02-11T18:26:13;7.20;99.90
37300;DHT22;23184;51.902;12.836;2023-02-11T18:28:39;7.20;99.90
37300;DHT22;23184;51.902;12.836;2023-02-11T18:31:06;7.10;99.90
37300;DHT22;23184;51.902;12.836;2023-02-11T18:33:32;7.10;99.90
37300;DHT22;23184;51.902;12.836;2023-02-11T18:35:58;7.10;99.90
37300;DHT22;23184;51.902;12.836;2023-02-11T18:38:24;7.10;99.90
37300;DHT22;23184;51.902;12.836;2023-02-11T18:40:50;7.10;99.90
37300;DHT22;23184;51.902;12.836;2023-02-11T18:43:17;7.10;99.90
37300;DHT22;23184;51.902;12.836;2023-02-11T18:45:44;7.10;99.90
37300;DHT22;23184;51.902;12.836;2023-02-11T18:48:09;7.00;99.90
37300;DHT22;23184;51.902;12.836;2023-02-11T18:50:36;7.10;99.90
37300;DHT22;23184;51.902;12.836;2023-02-11T18:53:01;7.00;99.90
37300;DHT22;23184;51.902;12.836;2023-02-11T18:55:27;7.00;99.90
37300;DHT22;23184;51.902;12.836;2023-02-11T18:57:52;7.00;99.90
37300;DHT22;23184;51.902;12.836;2023-02-11T19:00:18;7.00;99.90
37300;DHT22;23184;51.902;12.836;2023-02-11T19:02:44;7.00;99.90
37300;DHT22;23184;51.902;12.836;2023-02-11T19:05:10;7.10;99.90
37300;DHT22;23184;51.902;12.836;2023-02-11T19:07:36;7.10;99.90
37300;DHT22;23184;51.902;12.836;2023-02-11T19:10:01;7.10;99.90
37300;DHT22;23184;51.902;12.836;2023-02-11T19:12:27;7.10;99.90
37300;DHT22;23184;51.902;12.836;2023-02-11T19:14:52;7.20;99.90
37300;DHT22;23184;51.902;12.836;2023-02-11T19:17:18;7.10;99.90
37300;DHT22;23184;51.902;12.836;2023-02-11T19:19:43;7.20;99.90
37300;DHT22;23184;51.902;12.836;2023-02-11T19:22:09;7.20;99.90
37300;DHT22;23184;51.902;12.836;2023-02-11T19:24:35;7.20;99.90
37300;DHT22;23184;51.902;12.836;2023-02-11T19:27:02;7.10;99.90
37300;DHT22;23184;51.902;12.836;2023-02-11T19:29:29;7.10;99.90
37300;DHT22;23184;51.902;12.836;2023-02-11T19:31:57;7.10;99.90
37300;DHT22;23184;51.902;12.836;2023-02-11T19:34:23;7.10;99.90
37300;DHT22;23184;51.902;12.836;2023-02-11T19:36:49;7.00;99.90
37300;DHT22;23184;51.902;12.836;2023-02-11T19:39:14;7.00;99.90
37300;DHT22;23184;51.902;12.836;2023-02-11T19:41:40;7.00;99.90
37300;DHT22;23184;51.902;12.836;2023-02-11T19:44:06;7.10;99.90
37300;DHT22;23184;51.902;12.836;2023-02-11T19:46:35;7.10;99.90
37300;DHT22;23184;51.902;12.836;2023-02-11T19:49:01;7.10;99.90
37300;DHT22;23184;51.902;12.836;2023-02-11T19:51:27;7.10;99.90
37300;DHT22;23184;51.902;12.836;2023-02-11T19:53:53;7.10;99.90
37300;DHT22;23184;51.902;12.836;2023-02-11T19:56:19;7.10;99.90
37300;DHT22;23184;51.902;12.836;2023-02-11T19:58:45;7.00;99.90
37300;DHT22;23184;51.902;12.836;2023-02-11T20:01:15;7.00;99.90
37300;DHT22;23184;51.902;12.836;2023-02-11T20:03:41;6.90;99.90
37300;DHT22;23184;51.902;12.836;2023-02-11T20:06:10;6.90;99.90
37300;DHT22;23184;51.902;12.836;2023-02-11T20:08:36;6.90;99.90
37300;DHT22;23184;51.902;12.836;2023-02-11T20:11:06;6.80;99.90
37300;DHT22;23184;51.902;12.836;2023-02-11T20:13:32;6.80;99.90
37300;DHT22;23184;51.902;12.836;2023-02-11T20:16:03;6.80;99.90
37300;DHT22;23184;51.902;12.836;2023-02-11T20:18:29;6.80;99.90
37300;DHT22;23184;51.902;12.836;2023-02-11T20:20:54;6.80;99.90
37300;DHT22;23184;51.902;12.836;2023-02-11T20:23:20;6.80;99.90
37300;DHT22;23184;51.902;12.836;2023-02-11T20:25:45;6.80;99.90
37300;DHT22;23184;51.902;12.836;2023-02-11T20:28:10;6.70;99.90
37300;DHT22;23184;51.902;12.836;2023-02-11T20:30:36;6.70;99.90
37300;DHT22;23184;51.902;12.836;2023-02-11T20:33:01;6.70;99.90
37300;DHT22;23184;51.902;12.836;2023-02-11T20:35:27;6.70;99.90
37300;DHT22;23184;51.902;12.836;2023-02-11T20:37:52;6.70;99.90
37300;DHT22;23184;51.902;12.836;2023-02-11T20:40:18;6.70;99.90
37300;DHT22;23184;51.902;12.836;2023-02-11T20:42:43;6.60;99.90
37300;DHT22;23184;51.902;12.836;2023-02-11T20:45:09;6.60;99.90
37300;DHT22;23184;51.902;12.836;2023-02-11T20:47:36;6.60;99.90
37300;DHT22;23184;51.902;12.836;2023-02-11T20:50:01;6.60;99.90
37300;DHT22;23184;51.902;12.836;2023-02-11T20:52:27;6.50;99.90
37300;DHT22;23184;51.902;12.836;2023-02-11T20:54:52;6.40;99.90
37300;DHT22;23184;51.902;12.836;2023-02-11T20:57:18;6.50;99.90
37300;DHT22;23184;51.902;12.836;2023-02-11T20:59:43;6.50;99.90
37300;DHT22;23184;51.902;12.836;2023-02-11T21:02:09;6.60;99.90
37300;DHT22;23184;51.902;12.836;2023-02-11T21:04:36;6.50;99.90
37300;DHT22;23184;51.902;12.836;2023-02-11T21:07:03;6.50;99.90
37300;DHT22;23184;51.902;12.836;2023-02-11T21:09:30;6.50;99.90
37300;DHT22;23184;51.902;12.836;2023-02-11T21:11:57;6.40;99.90
37300;DHT22;23184;51.902;12.836;2023-02-11T21:14:24;6.50;99.90
37300;DHT22;23184;51.902;12.836;2023-02-11T21:16:50;6.60;99.90
37300;DHT22;23184;51.902;12.836;2023-02-11T21:19:16;6.60;99.90
37300;DHT22;23184;51.902;12.836;2023-02-11T21:21:42;6.50;99.90
37300;DHT22;23184;51.902;12.836;2023-02-11T21:24:09;6.50;99.90
37300;DHT22;23184;51.902;12.836;2023-02-11T21:26:34;6.40;99.90
37300;DHT22;23184;51.902;12.836;2023-02-11T21:29:05;6.40;99.90
37300;DHT22;23184;51.902;12.836;2023-02-11T21:31:32;6.30;99.90
37300;DHT22;23184;51.902;12.836;2023-02-11T21:33:57;6.30;99.90
37300;DHT22;23184;51.902;12.836;2023-02-11T21:36:25;6.30;99.90
37300;DHT22;23184;51.902;12.836;2023-02-11T21:38:50;6.20;99.90
37300;DHT22;23184;51.902;12.836;2023-02-11T21:41:17;6.30;99.90
37300;DHT22;23184;51.902;12.836;2023-02-11T21:43:44;6.30;99.90
37300;DHT22;23184;51.902;12.836;2023-02-11T21:46:12;6.30;99.90
37300;DHT22;23184;51.902;12.836;2023-02-11T21:48:37;6.40;99.90
37300;DHT22;23184;51.902;12.836;2023-02-11T21:51:08;6.30;99.90
37300;DHT22;23184;51.902;12.836;2023-02-11T21:53:35;6.30;99.90
37300;DHT22;23184;51.902;12.836;2023-02-11T21:56:03;6.30;99.90
37300;DHT22;23184;51.902;12.836;2023-02-11T21:58:28;6.30;99.90
37300;DHT22;23184;51.902;12.836;2023-02-11T22:00:54;6.30;99.90
37300;DHT22;23184;51.902;12.836;2023-02-11T22:03:19;6.30;99.90
37300;DHT22;23184;51.902;12.836;2023-02-11T22:05:45;6.30;99.90
37300;DHT22;23184;51.902;12.836;2023-02-11T22:08:10;6.30;99.90
37300;DHT22;23184;51.902;12.836;2023-02-11T22:10:36;6.40;99.90
37300;DHT22;23184;51.902;12.836;2023-02-11T22:13:03;6.40;99.90
37300;DHT22;23184;51.902;12.836;2023-02-11T22:15:28;6.40;99.90
37300;DHT22;23184;51.902;12.836;2023-02-11T22:17:54;6.40;99.90
37300;DHT22;23184;51.902;12.836;2023-02-11T22:20:20;6.30;99.90
37300;DHT22;23184;51.902;12.836;2023-02-11T22:22:45;6.30;99.90
37300;DHT22;23184;51.902;12.836;2023-02-11T22:25:11;6.30;99.90
37300;DHT22;23184;51.902;12.836;2023-02-11T22:27:36;6.30;99.90
37300;DHT22;23184;51.902;12.836;2023-02-11T22:30:02;6.40;99.90
37300;DHT22;23184;51.902;12.836;2023-02-11T22:32:28;6.40;99.90
37300;DHT22;23184;51.902;12.836;2023-02-11T22:34:54;6.40;99.90
37300;DHT22;23184;51.902;12.836;2023-02-11T22:37:19;6.40;99.90
37300;DHT22;23184;51.902;12.836;2023-02-11T22:39:45;6.40;99.90
37300;DHT22;23184;51.902;12.836;2023-02-11T22:42:10;6.50;99.90
37300;DHT22;23184;51.902;12.836;2023-02-11T22:44:36;6.50;99.90
37300;DHT22;23184;51.902;12.836;2023-02-11T22:47:02;6.50;99.90
37300;DHT22;23184;51.902;12.836;2023-02-11T22:49:27;6.50;99.90
37300;DHT22;23184;51.902;12.836;2023-02-11T22:51:53;6.50;99.90
37300;DHT22;23184;51.902;12.836;2023-02-11T22:54:18;6.50;99.90
37300;DHT22;23184;51.902;12.836;2023-02-11T22:56:44;6.50;99.90
37300;DHT22;23184;51.902;12.836;2023-02-11T22:59:14;6.40;99.90
37300;DHT22;23184;51.902;12.836;2023-02-11T23:01:39;6.40;99.90
37300;DHT22;23184;51.902;12.836;2023-02-11T23:04:09;6.50;99.90
37300;DHT22;23184;51.902;12.836;2023-02-11T23:06:35;6.50;99.90
37300;DHT22;23184;51.902;12.836;2023-02-11T23:09:06;6.50;99.90
37300;DHT22;23184;51.902;12.836;2023-02-11T23:11:32;6.40;99.90
37300;DHT22;23184;51.902;12.836;2023-02-11T23:13:59;6.40;99.90
37300;DHT22;23184;51.902;12.836;2023-02-11T23:16:28;6.40;99.90
37300;DHT22;23184;51.902;12.836;2023-02-11T23:18:57;6.40;99.90
37300;DHT22;23184;51.902;12.836;2023-02-11T23:21:27;6.40;99.90
37300;DHT22;23184;51.902;12.836;2023-02-11T23:23:55;6.40;99.90
37300;DHT22;23184;51.902;12.836;2023-02-11T23:26:20;6.40;99.90
37300;DHT22;23184;51.902;12.836;2023-02-11T23:28:46;6.40;99.90
37300;DHT22;23184;51.902;12.836;2023-02-11T23:31:19;6.30;99.90
37300;DHT22;23184;51.902;12.836;2023-02-11T23:33:46;6.40;99.90
37300;DHT22;23184;51.902;12.836;2023-02-11T23:36:11;6.40;99.90
37300;DHT22;23184;51.902;12.836;2023-02-11T23:38:37;6.40;99.90
37300;DHT22;23184;51.902;12.836;2023-02-11T23:41:03;6.30;99.90
37300;DHT22;23184;51.902;12.836;2023-02-11T23:43:28;6.30;99.90
37300;DHT22;23184;51.902;12.836;2023-02-11T23:45:54;6.40;99.90
37300;DHT22;23184;51.902;12.836;2023-02-11T23:48:19;6.40;99.90
37300;DHT22;23184;51.902;12.836;2023-02-11T23:50:45;6.40;99.90
37300;DHT22;23184;51.902;12.836;2023-02-11T23:53:10;6.40;99.90
37300;DHT22;23184;51.902;12.836;2023-02-11T23:55:40;6.40;99.90
37300;DHT22;23184;51.902;12.836;2023-02-11T23:58:06;6.40;99.90
